sensor_id;sensor_type;location;lat;lon;timestamp;pressure;altitude;pressure_sealevel;temperature;humidity
55066;BME280;40964;42.114;24.220;2023-06-10T00:02:07;97294.66;;;17.20;92.96
55066;BME280;40964;42.114;24.220;2023-06-10T00:04:33;97297.59;;;17.13;92.88
55066;BME280;40964;42.114;24.220;2023-06-10T00:06:58;97298.16;;;17.10;93.88
55066;BME280;40964;42.114;24.220;2023-06-10T00:09:24;97294.94;;;17.13;94.93
55066;BME280;40964;42.114;24.220;2023-06-10T00:11:49;97297.09;;;17.11;94.22
55066;BME280;40964;42.114;24.220;2023-06-10T00:14:15;97300.28;;;17.08;94.81
55066;BME280;40964;42.114;24.220;2023-06-10T00:16:40;97302.16;;;17.08;94.45
55066;BME280;40964;42.114;24.220;2023-06-10T00:19:06;97303.19;;;17.07;93.48
55066;BME280;40964;42.114;24.220;2023-06-10T00:21:32;97302.16;;;17.08;93.11
55066;BME280;40964;42.114;24.220;2023-06-10T00:24:04;97298.44;;;17.03;92.30
55066;BME280;40964;42.114;24.220;2023-06-10T00:26:31;97294.97;;;17.03;92.99
55066;BME280;40964;42.114;24.220;2023-06-10T00:28:57;97289.66;;;17.03;93.37
55066;BME280;40964;42.114;24.220;2023-06-10T00:31:22;97284.88;;;17.05;93.71
55066;BME280;40964;42.114;24.220;2023-06-10T00:33:47;97302.16;;;17.08;94.17
55066;BME280;40964;42.114;24.220;2023-06-10T00:36:13;97291.78;;;17.11;94.27
55066;BME280;40964;42.114;24.220;2023-06-10T00:38:38;97290.47;;;17.09;92.32
55066;BME280;40964;42.114;24.220;2023-06-10T00:41:06;97308.78;;;17.05;92.75
55066;BME280;40964;42.114;24.220;2023-06-10T00:43:31;97292.03;;;17.10;92.00
55066;BME280;40964;42.114;24.220;2023-06-10T00:45:57;97296.56;;;17.09;91.96
55066;BME280;40964;42.114;24.220;2023-06-10T00:48:22;97292.31;;;17.08;92.54
55066;BME280;40964;42.114;24.220;2023-06-10T00:50:48;97300.28;;;17.03;92.55
55066;BME280;40964;42.114;24.220;2023-06-10T00:53:14;97295.53;;;16.95;91.90
55066;BME280;40964;42.114;24.220;2023-06-10T00:55:41;97298.22;;;16.85;92.31
55066;BME280;40964;42.114;24.220;2023-06-10T00:58:07;97304.84;;;16.77;92.45
55066;BME280;40964;42.114;24.220;2023-06-10T01:00:32;97304.31;;;16.70;92.94
55066;BME280;40964;42.114;24.220;2023-06-10T01:02:58;97301.16;;;16.73;93.24
55066;BME280;40964;42.114;24.220;2023-06-10T01:05:24;97306.19;;;16.74;94.46
55066;BME280;40964;42.114;24.220;2023-06-10T01:08:01;97282.00;;;16.66;93.79
55066;BME280;40964;42.114;24.220;2023-06-10T01:10:33;97292.13;;;16.69;94.22
55066;BME280;40964;42.114;24.220;2023-06-10T01:15:29;97292.66;;;16.76;93.48
55066;BME280;40964;42.114;24.220;2023-06-10T01:17:56;97293.19;;;16.73;92.26
55066;BME280;40964;42.114;24.220;2023-06-10T01:20:22;97295.28;;;16.71;91.95
55066;BME280;40964;42.114;24.220;2023-06-10T01:22:49;97289.75;;;16.72;91.46
55066;BME280;40964;42.114;24.220;2023-06-10T01:25:16;97288.66;;;16.68;91.55
55066;BME280;40964;42.114;24.220;2023-06-10T01:27:42;97287.09;;;16.72;92.76
55066;BME280;40964;42.114;24.220;2023-06-10T01:30:17;97277.25;;;16.73;93.79
55066;BME280;40964;42.114;24.220;2023-06-10T01:32:48;97285.22;;;16.73;93.02
55066;BME280;40964;42.114;24.220;2023-06-10T01:35:15;97276.97;;;16.74;92.20
55066;BME280;40964;42.114;24.220;2023-06-10T01:37:45;97276.72;;;16.76;92.06
55066;BME280;40964;42.114;24.220;2023-06-10T01:40:12;97275.13;;;16.75;91.62
55066;BME280;40964;42.114;24.220;2023-06-10T01:42:38;97275.91;;;16.76;92.87
55066;BME280;40964;42.114;24.220;2023-06-10T01:45:04;97292.13;;;16.69;91.71
55066;BME280;40964;42.114;24.220;2023-06-10T01:47:29;97287.88;;;16.73;92.39
55066;BME280;40964;42.114;24.220;2023-06-10T01:49:55;97288.69;;;16.73;91.32
55066;BME280;40964;42.114;24.220;2023-06-10T01:52:20;97291.06;;;16.75;91.04
55066;BME280;40964;42.114;24.220;2023-06-10T01:54:46;97283.59;;;16.67;90.91
55066;BME280;40964;42.114;24.220;2023-06-10T01:57:11;97286.53;;;16.70;92.18
55066;BME280;40964;42.114;24.220;2023-06-10T01:59:37;97297.44;;;16.74;92.45
55066;BME280;40964;42.114;24.220;2023-06-10T02:02:04;97300.09;;;16.74;92.61
55066;BME280;40964;42.114;24.220;2023-06-10T02:04:30;97301.66;;;16.70;92.65
55066;BME280;40964;42.114;24.220;2023-06-10T02:06:55;97303.25;;;16.71;94.11
55066;BME280;40964;42.114;24.220;2023-06-10T02:09:22;97306.19;;;16.74;94.74
55066;BME280;40964;42.114;24.220;2023-06-10T02:11:48;97306.97;;;16.70;94.31
55066;BME280;40964;42.114;24.220;2023-06-10T02:14:14;97314.16;;;16.64;94.53
55066;BME280;40964;42.114;24.220;2023-06-10T02:16:40;97312.81;;;16.67;94.37
55066;BME280;40964;42.114;24.220;2023-06-10T02:19:05;97306.44;;;16.58;95.56
55066;BME280;40964;42.114;24.220;2023-06-10T02:21:32;97317.59;;;16.55;95.76
55066;BME280;40964;42.114;24.220;2023-06-10T02:24:00;97313.34;;;16.54;95.60
55066;BME280;40964;42.114;24.220;2023-06-10T02:26:25;97300.09;;;16.54;96.89
55066;BME280;40964;42.114;24.220;2023-06-10T02:28:51;97299.53;;;16.52;95.40
55066;BME280;40964;42.114;24.220;2023-06-10T02:31:17;97299.25;;;16.53;95.86
55066;BME280;40964;42.114;24.220;2023-06-10T02:33:43;97299.56;;;16.46;94.87
55066;BME280;40964;42.114;24.220;2023-06-10T02:36:10;97301.94;;;16.48;96.92
55066;BME280;40964;42.114;24.220;2023-06-10T02:38:39;97295.56;;;16.49;96.86
55066;BME280;40964;42.114;24.220;2023-06-10T02:41:05;97292.09;;;16.59;97.32
55066;BME280;40964;42.114;24.220;2023-06-10T02:43:31;97293.16;;;16.58;95.42
55066;BME280;40964;42.114;24.220;2023-06-10T02:45:56;97278.84;;;16.54;95.88
55066;BME280;40964;42.114;24.220;2023-06-10T02:48:23;97294.50;;;16.65;95.79
55066;BME280;40964;42.114;24.220;2023-06-10T02:53:25;97279.63;;;16.74;96.00
55066;BME280;40964;42.114;24.220;2023-06-10T02:55:51;97281.44;;;16.89;95.94
55066;BME280;40964;42.114;24.220;2023-06-10T02:58:16;97294.72;;;16.99;95.46
55066;BME280;40964;42.114;24.220;2023-06-10T03:00:41;97286.72;;;17.05;94.33
55066;BME280;40964;42.114;24.220;2023-06-10T03:03:08;97249.06;;;16.92;94.73
55066;BME280;40964;42.114;24.220;2023-06-10T03:05:35;97275.56;;;17.18;94.34
55066;BME280;40964;42.114;24.220;2023-06-10T03:08:01;97282.13;;;17.30;94.41
55066;BME280;40964;42.114;24.220;2023-06-10T03:10:26;97286.09;;;17.38;93.87
55066;BME280;40964;42.114;24.220;2023-06-10T03:12:52;97282.88;;;17.41;94.02
55066;BME280;40964;42.114;24.220;2023-06-10T03:15:17;97280.22;;;17.41;94.14
55066;BME280;40964;42.114;24.220;2023-06-10T03:17:43;97281.56;;;17.44;94.48
55066;BME280;40964;42.114;24.220;2023-06-10T03:20:08;97281.25;;;17.50;94.19
55066;BME280;40964;42.114;24.220;2023-06-10T03:22:35;97285.47;;;17.56;92.58
55066;BME280;40964;42.114;24.220;2023-06-10T03:25:03;97282.81;;;17.62;92.95
55066;BME280;40964;42.114;24.220;2023-06-10T03:27:29;97288.38;;;17.65;92.22
55066;BME280;40964;42.114;24.220;2023-06-10T03:29:55;97294.22;;;17.72;92.09
55066;BME280;40964;42.114;24.220;2023-06-10T03:32:21;97292.59;;;17.76;92.71
55066;BME280;40964;42.114;24.220;2023-06-10T03:34:46;97298.69;;;17.82;91.30
55066;BME280;40964;42.114;24.220;2023-06-10T03:37:13;97307.38;;;17.93;91.94
55066;BME280;40964;42.114;24.220;2023-06-10T03:39:38;97304.97;;;17.96;90.86
55066;BME280;40964;42.114;24.220;2023-06-10T03:42:04;97290.34;;;17.99;92.19
55066;BME280;40964;42.114;24.220;2023-06-10T03:44:29;97289.22;;;18.05;92.54
55066;BME280;40964;42.114;24.220;2023-06-10T03:46:55;97300.59;;;18.15;91.83
55066;BME280;40964;42.114;24.220;2023-06-10T03:49:21;97297.38;;;18.19;93.05
55066;BME280;40964;42.114;24.220;2023-06-10T03:51:51;97293.88;;;18.23;90.33
55066;BME280;40964;42.114;24.220;2023-06-10T03:54:17;97296.22;;;18.30;91.09
55066;BME280;40964;42.114;24.220;2023-06-10T03:56:42;97305.50;;;18.37;91.90
55066;BME280;40964;42.114;24.220;2023-06-10T03:59:08;97302.78;;;18.42;92.59
55066;BME280;40964;42.114;24.220;2023-06-10T04:01:33;97296.63;;;18.47;93.13
55066;BME280;40964;42.114;24.220;2023-06-10T04:04:00;97300.66;;;18.44;93.96
55066;BME280;40964;42.114;24.220;2023-06-10T04:06:26;97302.59;;;18.34;92.48
55066;BME280;40964;42.114;24.220;2023-06-10T04:08:54;97306.84;;;18.35;92.70
55066;BME280;40964;42.114;24.220;2023-06-10T04:11:23;97306.25;;;18.43;93.69
55066;BME280;40964;42.114;24.220;2023-06-10T04:13:49;97300.59;;;18.50;93.35
55066;BME280;40964;42.114;24.220;2023-06-10T04:16:14;97309.34;;;18.55;92.95
55066;BME280;40964;42.114;24.220;2023-06-10T04:18:41;97311.16;;;18.65;91.62
55066;BME280;40964;42.114;24.220;2023-06-10T04:21:07;97316.19;;;18.66;91.14
55066;BME280;40964;42.114;24.220;2023-06-10T04:23:35;97319.56;;;18.77;92.09
55066;BME280;40964;42.114;24.220;2023-06-10T04:26:00;97323.88;;;18.73;92.33
55066;BME280;40964;42.114;24.220;2023-06-10T04:28:26;97327.31;;;18.74;91.72
55066;BME280;40964;42.114;24.220;2023-06-10T04:30:52;97335.53;;;18.77;91.00
55066;BME280;40964;42.114;24.220;2023-06-10T04:33:17;97337.31;;;18.87;91.24
55066;BME280;40964;42.114;24.220;2023-06-10T04:35:43;97339.28;;;18.76;92.51
55066;BME280;40964;42.114;24.220;2023-06-10T04:38:08;97341.25;;;18.65;91.54
55066;BME280;40964;42.114;24.220;2023-06-10T04:40:33;97343.44;;;18.53;90.94
55066;BME280;40964;42.114;24.220;2023-06-10T04:42:59;97340.53;;;18.50;91.26
55066;BME280;40964;42.114;24.220;2023-06-10T04:45:26;97340.78;;;18.53;90.37
55066;BME280;40964;42.114;24.220;2023-06-10T04:47:51;97329.25;;;18.63;89.45
55066;BME280;40964;42.114;24.220;2023-06-10T04:50:17;97338.19;;;18.77;88.53
55066;BME280;40964;42.114;24.220;2023-06-10T04:52:42;97325.13;;;18.81;87.26
55066;BME280;40964;42.114;24.220;2023-06-10T04:55:09;97335.28;;;18.79;88.53
55066;BME280;40964;42.114;24.220;2023-06-10T04:57:35;97336.81;;;18.85;88.20
55066;BME280;40964;42.114;24.220;2023-06-10T05:00:00;97332.56;;;18.84;91.18
55066;BME280;40964;42.114;24.220;2023-06-10T05:02:26;97333.59;;;18.88;92.25
55066;BME280;40964;42.114;24.220;2023-06-10T05:04:51;97334.94;;;18.85;90.61
55066;BME280;40964;42.114;24.220;2023-06-10T05:07:18;97331.16;;;18.91;90.57
55066;BME280;40964;42.114;24.220;2023-06-10T05:09:43;97339.63;;;18.98;90.66
55066;BME280;40964;42.114;24.220;2023-06-10T05:12:10;97326.91;;;18.90;91.92
55066;BME280;40964;42.114;24.220;2023-06-10T05:14:35;97334.00;;;19.00;91.54
55066;BME280;40964;42.114;24.220;2023-06-10T05:17:01;97333.53;;;18.93;93.21
55066;BME280;40964;42.114;24.220;2023-06-10T05:19:31;97337.66;;;19.33;92.14
55066;BME280;40964;42.114;24.220;2023-06-10T05:21:57;97334.78;;;19.77;89.92
55066;BME280;40964;42.114;24.220;2023-06-10T05:24:23;97340.91;;;19.97;81.91
55066;BME280;40964;42.114;24.220;2023-06-10T05:26:48;97342.00;;;19.96;84.28
55066;BME280;40964;42.114;24.220;2023-06-10T05:29:14;97342.63;;;20.25;82.03
55066;BME280;40964;42.114;24.220;2023-06-10T05:31:41;97342.69;;;20.58;78.24
55066;BME280;40964;42.114;24.220;2023-06-10T05:34:06;97333.59;;;20.91;76.19
55066;BME280;40964;42.114;24.220;2023-06-10T05:36:32;97338.19;;;21.18;74.65
55066;BME280;40964;42.114;24.220;2023-06-10T05:38:57;97333.84;;;21.22;77.58
55066;BME280;40964;42.114;24.220;2023-06-10T05:41:23;97329.72;;;21.30;74.37
55066;BME280;40964;42.114;24.220;2023-06-10T05:43:48;97338.63;;;21.39;78.73
55066;BME280;40964;42.114;24.220;2023-06-10T05:46:14;97332.75;;;21.37;73.04
55066;BME280;40964;42.114;24.220;2023-06-10T05:48:39;97331.53;;;21.16;75.20
55066;BME280;40964;42.114;24.220;2023-06-10T05:53:42;97340.44;;;20.97;76.36
55066;BME280;40964;42.114;24.220;2023-06-10T05:56:07;97347.97;;;20.95;77.28
55066;BME280;40964;42.114;24.220;2023-06-10T05:58:33;97352.19;;;21.29;74.18
55066;BME280;40964;42.114;24.220;2023-06-10T06:00:58;97354.59;;;21.58;73.17
55066;BME280;40964;42.114;24.220;2023-06-10T06:03:25;97349.78;;;21.96;73.37
55066;BME280;40964;42.114;24.220;2023-06-10T06:05:50;97353.84;;;21.80;76.51
55066;BME280;40964;42.114;24.220;2023-06-10T06:08:15;97352.97;;;21.85;72.36
55066;BME280;40964;42.114;24.220;2023-06-10T06:10:45;97357.19;;;21.99;71.33
55066;BME280;40964;42.114;24.220;2023-06-10T06:13:10;97359.78;;;22.04;70.42
55066;BME280;40964;42.114;24.220;2023-06-10T06:15:36;97364.22;;;22.23;71.45
55066;BME280;40964;42.114;24.220;2023-06-10T06:18:01;97365.22;;;21.99;71.18
55066;BME280;40964;42.114;24.220;2023-06-10T06:20:27;97364.34;;;21.90;72.61
55066;BME280;40964;42.114;24.220;2023-06-10T06:22:52;97361.69;;;22.40;73.04
55066;BME280;40964;42.114;24.220;2023-06-10T06:25:18;97355.63;;;22.48;71.79
55066;BME280;40964;42.114;24.220;2023-06-10T06:27:43;97361.28;;;22.47;71.48
55066;BME280;40964;42.114;24.220;2023-06-10T06:30:09;97350.13;;;22.53;70.96
55066;BME280;40964;42.114;24.220;2023-06-10T06:32:34;97360.78;;;22.67;72.42
55066;BME280;40964;42.114;24.220;2023-06-10T06:35:00;97351.28;;;22.83;71.95
55066;BME280;40964;42.114;24.220;2023-06-10T06:37:26;97355.84;;;23.05;70.00
55066;BME280;40964;42.114;24.220;2023-06-10T06:39:52;97348.34;;;23.25;71.31
55066;BME280;40964;42.114;24.220;2023-06-10T06:42:18;97339.81;;;23.22;68.87
55066;BME280;40964;42.114;24.220;2023-06-10T06:44:44;97334.63;;;23.26;69.10
55066;BME280;40964;42.114;24.220;2023-06-10T06:47:10;97336.50;;;23.26;67.25
55066;BME280;40964;42.114;24.220;2023-06-10T06:49:35;97332.88;;;23.21;66.77
55066;BME280;40964;42.114;24.220;2023-06-10T06:52:01;97329.22;;;23.17;66.05
55066;BME280;40964;42.114;24.220;2023-06-10T06:54:27;97321.03;;;23.22;65.18
55066;BME280;40964;42.114;24.220;2023-06-10T06:56:52;97323.59;;;23.28;68.73
55066;BME280;40964;42.114;24.220;2023-06-10T06:59:18;97329.72;;;23.59;67.72
55066;BME280;40964;42.114;24.220;2023-06-10T07:01:45;97325.03;;;23.73;64.87
55066;BME280;40964;42.114;24.220;2023-06-10T07:04:10;97332.78;;;23.92;63.75
55066;BME280;40964;42.114;24.220;2023-06-10T07:06:36;97324.38;;;23.76;63.50
55066;BME280;40964;42.114;24.220;2023-06-10T07:09:01;97328.81;;;23.81;62.91
55066;BME280;40964;42.114;24.220;2023-06-10T07:11:27;97320.75;;;23.72;63.52
55066;BME280;40964;42.114;24.220;2023-06-10T07:13:52;97324.88;;;23.96;62.93
55066;BME280;40964;42.114;24.220;2023-06-10T07:16:18;97317.97;;;24.38;61.97
55066;BME280;40964;42.114;24.220;2023-06-10T07:18:46;97318.09;;;24.68;61.93
55066;BME280;40964;42.114;24.220;2023-06-10T07:21:11;97313.69;;;25.27;61.07
55066;BME280;40964;42.114;24.220;2023-06-10T07:23:37;97312.72;;;25.91;57.91
55066;BME280;40964;42.114;24.220;2023-06-10T07:26:02;97322.47;;;26.58;56.88
55066;BME280;40964;42.114;24.220;2023-06-10T07:28:28;97318.03;;;26.62;56.95
55066;BME280;40964;42.114;24.220;2023-06-10T07:30:53;97315.31;;;26.62;52.28
55066;BME280;40964;42.114;24.220;2023-06-10T07:33:19;97319.78;;;26.91;51.15
55066;BME280;40964;42.114;24.220;2023-06-10T07:35:44;97309.94;;;27.07;52.22
55066;BME280;40964;42.114;24.220;2023-06-10T07:38:10;97312.53;;;27.40;53.28
55066;BME280;40964;42.114;24.220;2023-06-10T07:40:35;97309.66;;;26.88;52.97
55066;BME280;40964;42.114;24.220;2023-06-10T07:43:01;97307.03;;;27.25;50.67
55066;BME280;40964;42.114;24.220;2023-06-10T07:45:26;97309.03;;;27.40;49.95
55066;BME280;40964;42.114;24.220;2023-06-10T07:47:52;97313.28;;;27.04;51.11
55066;BME280;40964;42.114;24.220;2023-06-10T07:50:17;97311.53;;;26.75;51.39
55066;BME280;40964;42.114;24.220;2023-06-10T07:52:43;97304.47;;;26.83;52.47
55066;BME280;40964;42.114;24.220;2023-06-10T07:55:08;97309.97;;;26.86;52.87
55066;BME280;40964;42.114;24.220;2023-06-10T07:57:34;97317.66;;;26.51;52.66
55066;BME280;40964;42.114;24.220;2023-06-10T08:00:03;97324.53;;;26.61;53.98
55066;BME280;40964;42.114;24.220;2023-06-10T08:02:29;97326.06;;;26.29;54.26
55066;BME280;40964;42.114;24.220;2023-06-10T08:04:55;97317.66;;;26.10;55.86
55066;BME280;40964;42.114;24.220;2023-06-10T08:07:21;97319.72;;;25.83;56.12
55066;BME280;40964;42.114;24.220;2023-06-10T08:09:47;97316.66;;;25.93;55.15
55066;BME280;40964;42.114;24.220;2023-06-10T08:12:13;97320.13;;;25.94;53.58
55066;BME280;40964;42.114;24.220;2023-06-10T08:14:38;97321.84;;;25.98;54.63
55066;BME280;40964;42.114;24.220;2023-06-10T08:17:04;97323.50;;;25.91;55.51
55066;BME280;40964;42.114;24.220;2023-06-10T08:19:31;97329.47;;;25.96;56.82
55066;BME280;40964;42.114;24.220;2023-06-10T08:21:56;97319.88;;;26.08;53.99
55066;BME280;40964;42.114;24.220;2023-06-10T08:24:22;97317.38;;;26.02;52.91
55066;BME280;40964;42.114;24.220;2023-06-10T08:26:47;97323.22;;;26.04;55.89
55066;BME280;40964;42.114;24.220;2023-06-10T08:29:13;97334.00;;;25.84;55.45
55066;BME280;40964;42.114;24.220;2023-06-10T08:31:42;97324.00;;;25.84;56.31
55066;BME280;40964;42.114;24.220;2023-06-10T08:34:08;97327.31;;;25.90;56.01
55066;BME280;40964;42.114;24.220;2023-06-10T08:36:34;97331.69;;;25.65;58.06
55066;BME280;40964;42.114;24.220;2023-06-10T08:38:59;97335.59;;;25.46;57.91
55066;BME280;40964;42.114;24.220;2023-06-10T08:41:28;97334.03;;;25.45;60.29
55066;BME280;40964;42.114;24.220;2023-06-10T08:44:22;97326.72;;;25.46;61.72
55066;BME280;40964;42.114;24.220;2023-06-10T08:46:53;97320.84;;;25.53;60.88
55066;BME280;40964;42.114;24.220;2023-06-10T08:49:22;97328.44;;;25.51;62.16
55066;BME280;40964;42.114;24.220;2023-06-10T08:51:50;97321.06;;;25.68;58.93
55066;BME280;40964;42.114;24.220;2023-06-10T08:54:20;97324.59;;;25.60;58.51
55066;BME280;40964;42.114;24.220;2023-06-10T08:56:49;97322.84;;;25.64;60.83
55066;BME280;40964;42.114;24.220;2023-06-10T08:59:16;97320.72;;;25.70;59.15
55066;BME280;40964;42.114;24.220;2023-06-10T09:01:43;97312.09;;;25.85;58.75
55066;BME280;40964;42.114;24.220;2023-06-10T09:04:10;97314.47;;;25.87;61.18
55066;BME280;40964;42.114;24.220;2023-06-10T09:06:37;97321.59;;;25.91;61.24
55066;BME280;40964;42.114;24.220;2023-06-10T09:09:05;97308.69;;;25.67;61.20
55066;BME280;40964;42.114;24.220;2023-06-10T09:11:31;97307.50;;;25.56;64.98
55066;BME280;40964;42.114;24.220;2023-06-10T09:13:57;97311.13;;;25.60;60.42
55066;BME280;40964;42.114;24.220;2023-06-10T09:16:24;97306.25;;;25.54;59.85
55066;BME280;40964;42.114;24.220;2023-06-10T09:18:50;97306.06;;;25.29;59.03
55066;BME280;40964;42.114;24.220;2023-06-10T09:21:24;97296.94;;;25.13;63.21
55066;BME280;40964;42.114;24.220;2023-06-10T09:23:50;97295.09;;;24.87;66.17
55066;BME280;40964;42.114;24.220;2023-06-10T09:26:17;97311.75;;;24.81;68.86
55066;BME280;40964;42.114;24.220;2023-06-10T09:28:48;97312.41;;;24.52;69.02
55066;BME280;40964;42.114;24.220;2023-06-10T09:31:14;97316.69;;;24.27;70.66
55066;BME280;40964;42.114;24.220;2023-06-10T09:33:44;97318.91;;;24.33;72.67
55066;BME280;40964;42.114;24.220;2023-06-10T09:36:10;97314.47;;;24.20;69.88
55066;BME280;40964;42.114;24.220;2023-06-10T09:38:37;97315.09;;;24.00;71.31
55066;BME280;40964;42.114;24.220;2023-06-10T09:41:03;97315.09;;;24.00;70.99
55066;BME280;40964;42.114;24.220;2023-06-10T09:43:45;97309.75;;;24.00;72.68
55066;BME280;40964;42.114;24.220;2023-06-10T09:46:18;97321.56;;;24.07;72.68
55066;BME280;40964;42.114;24.220;2023-06-10T09:48:45;97330.72;;;23.98;73.20
55066;BME280;40964;42.114;24.220;2023-06-10T09:51:13;97325.34;;;23.89;72.06
55066;BME280;40964;42.114;24.220;2023-06-10T09:53:39;97330.72;;;23.89;72.90
55066;BME280;40964;42.114;24.220;2023-06-10T09:56:05;97326.63;;;23.92;73.50
55066;BME280;40964;42.114;24.220;2023-06-10T09:58:40;97326.13;;;23.90;71.13
55066;BME280;40964;42.114;24.220;2023-06-10T10:01:10;97323.63;;;23.85;70.46
55066;BME280;40964;42.114;24.220;2023-06-10T10:03:51;97313.97;;;23.84;70.49
55066;BME280;40964;42.114;24.220;2023-06-10T10:06:19;97316.19;;;23.99;69.12
55066;BME280;40964;42.114;24.220;2023-06-10T10:08:46;97308.31;;;24.11;68.40
55066;BME280;40964;42.114;24.220;2023-06-10T10:11:12;97303.25;;;24.10;68.91
55066;BME280;40964;42.114;24.220;2023-06-10T10:13:39;97311.03;;;24.37;69.59
55066;BME280;40964;42.114;24.220;2023-06-10T10:16:15;97313.38;;;24.47;67.30
55066;BME280;40964;42.114;24.220;2023-06-10T10:18:52;97307.97;;;24.65;67.72
55066;BME280;40964;42.114;24.220;2023-06-10T10:21:22;97303.38;;;24.74;65.74
55066;BME280;40964;42.114;24.220;2023-06-10T10:24:16;97312.69;;;24.85;64.04
55066;BME280;40964;42.114;24.220;2023-06-10T10:26:43;97292.91;;;24.81;66.71
55066;BME280;40964;42.114;24.220;2023-06-10T10:31:42;97295.06;;;25.05;58.83
55066;BME280;40964;42.114;24.220;2023-06-10T10:34:16;97278.94;;;25.05;58.85
55066;BME280;40964;42.114;24.220;2023-06-10T10:36:43;97287.50;;;25.36;59.49
55066;BME280;40964;42.114;24.220;2023-06-10T10:39:10;97285.16;;;25.35;58.62
55066;BME280;40964;42.114;24.220;2023-06-10T10:41:36;97279.94;;;25.30;57.52
55066;BME280;40964;42.114;24.220;2023-06-10T10:44:04;97285.03;;;25.52;58.28
55066;BME280;40964;42.114;24.220;2023-06-10T10:46:48;97273.09;;;25.91;56.27
55066;BME280;40964;42.114;24.220;2023-06-10T10:49:14;97275.69;;;26.21;56.54
55066;BME280;40964;42.114;24.220;2023-06-10T10:52:00;97262.50;;;26.61;56.56
55066;BME280;40964;42.114;24.220;2023-06-10T10:54:33;97266.75;;;26.62;52.13
55066;BME280;40964;42.114;24.220;2023-06-10T10:57:20;97263.63;;;26.60;55.92
55066;BME280;40964;42.114;24.220;2023-06-10T11:02:16;97262.91;;;27.21;54.72
55066;BME280;40964;42.114;24.220;2023-06-10T11:04:48;97261.31;;;27.56;53.98
55066;BME280;40964;42.114;24.220;2023-06-10T11:07:14;97256.13;;;27.63;52.24
55066;BME280;40964;42.114;24.220;2023-06-10T11:13:14;97258.28;;;28.10;51.21
55066;BME280;40964;42.114;24.220;2023-06-10T11:15:44;97259.97;;;27.62;50.29
55066;BME280;40964;42.114;24.220;2023-06-10T11:21:01;97257.31;;;28.31;51.86
55066;BME280;40964;42.114;24.220;2023-06-10T11:26:20;97247.69;;;28.17;48.61
55066;BME280;40964;42.114;24.220;2023-06-10T11:31:30;97229.47;;;28.74;49.38
55066;BME280;40964;42.114;24.220;2023-06-10T11:34:04;97220.69;;;28.93;50.25
55066;BME280;40964;42.114;24.220;2023-06-10T11:36:31;97227.22;;;28.92;48.41
55066;BME280;40964;42.114;24.220;2023-06-10T11:38:58;97227.06;;;29.00;45.28
55066;BME280;40964;42.114;24.220;2023-06-10T11:41:25;97217.06;;;29.20;44.61
55066;BME280;40964;42.114;24.220;2023-06-10T11:43:52;97217.56;;;29.57;46.52
55066;BME280;40964;42.114;24.220;2023-06-10T11:46:18;97209.22;;;29.85;43.99
55066;BME280;40964;42.114;24.220;2023-06-10T11:48:53;97216.22;;;29.86;42.30
55066;BME280;40964;42.114;24.220;2023-06-10T11:51:19;97210.34;;;29.65;45.96
55066;BME280;40964;42.114;24.220;2023-06-10T11:53:47;97210.06;;;29.89;42.82
55066;BME280;40964;42.114;24.220;2023-06-10T11:56:12;97205.59;;;29.78;43.47
55066;BME280;40964;42.114;24.220;2023-06-10T11:58:42;97210.16;;;29.93;42.55
55066;BME280;40964;42.114;24.220;2023-06-10T12:01:09;97203.63;;;30.36;44.38
55066;BME280;40964;42.114;24.220;2023-06-10T12:03:38;97203.38;;;30.22;41.72
55066;BME280;40964;42.114;24.220;2023-06-10T12:06:05;97200.69;;;30.45;43.44
55066;BME280;40964;42.114;24.220;2023-06-10T12:08:31;97199.50;;;30.42;42.22
55066;BME280;40964;42.114;24.220;2023-06-10T12:10:57;97207.09;;;30.56;41.15
55066;BME280;40964;42.114;24.220;2023-06-10T12:13:25;97196.50;;;30.47;42.64
55066;BME280;40964;42.114;24.220;2023-06-10T12:15:51;97191.84;;;30.71;41.15
55066;BME280;40964;42.114;24.220;2023-06-10T12:20:43;97185.22;;;30.26;41.01
55066;BME280;40964;42.114;24.220;2023-06-10T12:23:09;97182.81;;;29.82;42.29
55066;BME280;40964;42.114;24.220;2023-06-10T12:25:35;97183.94;;;30.01;42.01
55066;BME280;40964;42.114;24.220;2023-06-10T12:28:05;97174.97;;;29.96;43.99
55066;BME280;40964;42.114;24.220;2023-06-10T12:30:32;97175.81;;;30.01;45.02
55066;BME280;40964;42.114;24.220;2023-06-10T12:32:58;97174.22;;;30.38;40.60
55066;BME280;40964;42.114;24.220;2023-06-10T12:35:25;97169.41;;;30.51;42.61
55066;BME280;40964;42.114;24.220;2023-06-10T12:37:58;97169.41;;;30.51;40.08
55066;BME280;40964;42.114;24.220;2023-06-10T12:40:37;97172.13;;;30.51;41.58
55066;BME280;40964;42.114;24.220;2023-06-10T12:43:05;97160.09;;;30.52;39.31
55066;BME280;40964;42.114;24.220;2023-06-10T12:45:31;97166.78;;;30.35;42.64
55066;BME280;40964;42.114;24.220;2023-06-10T12:48:19;97157.78;;;29.89;42.29
55066;BME280;40964;42.114;24.220;2023-06-10T12:50:54;97160.50;;;29.89;42.41
55066;BME280;40964;42.114;24.220;2023-06-10T12:53:20;97163.28;;;29.73;42.98
55066;BME280;40964;42.114;24.220;2023-06-10T12:55:46;97157.34;;;30.06;43.51
55066;BME280;40964;42.114;24.220;2023-06-10T12:58:12;97149.06;;;30.41;41.11
55066;BME280;40964;42.114;24.220;2023-06-10T13:00:39;97143.00;;;30.48;40.63
55066;BME280;40964;42.114;24.220;2023-06-10T13:03:05;97138.97;;;30.19;40.71
55066;BME280;40964;42.114;24.220;2023-06-10T13:05:35;97144.13;;;30.24;40.35
55066;BME280;40964;42.114;24.220;2023-06-10T13:08:06;97147.56;;;30.21;39.51
55066;BME280;40964;42.114;24.220;2023-06-10T13:10:32;97144.31;;;30.12;40.84
55066;BME280;40964;42.114;24.220;2023-06-10T13:12:59;97150.56;;;29.96;42.41
55066;BME280;40964;42.114;24.220;2023-06-10T13:15:25;97133.78;;;29.91;42.11
55066;BME280;40964;42.114;24.220;2023-06-10T13:17:51;97131.16;;;29.94;42.66